Moorpark, California
Current Conditions -  °F | °C
As of 7:55 PM on Wednesday 22 Oct 2014 (Local Time) from KCMA Reporting Station
Clear Clear  
Wind Chill: 67°   Ceiling: Unl
Heat Index: 67°   Visibility: 10mi
Dew Point: 56°   Wind: 5mph
Humidity: 68%   Direction: 30°NNE
Pressure: 29.93"   Gusts: NA
Location:  34.29°N, 118.88°W
Report Text: KCMA 230255Z 03004KT 10SM CLR 19/13 A2993 RMK AO2 SLP142 T01940133 53011
Loading
Personal Weather Stations






























Interactive Weather Map
Tropical Storm Tracking
New forecast layout! Learn more

10-Day Weather Forecast

Advertisements
Track Severe Weather on mobile